• Join FlightAware (Why Join?)
  • Login
  • US Flag 
05:12PM EDT


 

Airport Tracker/Info


-or-


 

Live Flight TrackerFlight Track Log ✈ UAL5840 ✈ 15-Apr-2013 ✈ CYWG - KORD

Flight Track Log - Related Links

Times and Time Zones

All times are in EDT time to prevent confusion due to time zone crossing. See the UAL5840 flight status page for this flight to view local times or setup timezone preferences in your user account.

Time Position Orientation Groundspeed Altitude Reporting Facility
EDT Latitude Longitude Course Direction KTS MPH feet Rate Location/Type
02:58PM 49.9500 -97.2333 147° Southeast 170 196 3,900  Level Winnipeg Center
02:59PM 49.9833 -97.1667 52° Northeast 200 230 6,200 1,920 Climbing Winnipeg Center
03:00PM 49.9167 -97.1167 154° Southeast 260 299 7,800 1,800 Climbing Winnipeg Center
03:01PM 49.8500 -97.1000 171° South 290 334 9,800 1,500 Climbing Winnipeg Center
03:02PM 49.7667 -97.0667 166° South 330 380 10,800 1,200 Climbing Winnipeg Center
03:03PM 49.3597 -96.6930 147° Southeast  Level FlightAware Approximate
03:03PM 49.6833 -97.0000 153° Southeast 340 391 12,200  Level Winnipeg Center
03:04PM 49.6000 -96.9167 147° Southeast 340 391 14,300 1,680 Climbing Winnipeg Center
03:05PM 49.5167 -96.8333 147° Southeast 340 391 15,600 1,200 Climbing Winnipeg Center
03:06PM 49.4333 -96.7667 153° Southeast 360 414 16,700 1,020 Climbing Winnipeg Center
03:07PM 49.3500 -96.6833 147° Southeast 370 426 17,700 1,080 Climbing Winnipeg Center
03:08PM 49.2500 -96.5833 147° Southeast 380 437 18,900 1,080 Climbing Winnipeg Center
03:09PM 49.1667 -96.5000 147° Southeast 390 449 19,900 1,080 Climbing Winnipeg Center
03:10PM 49.0833 -96.4333 152° Southeast 390 449 21,100 1,260 Climbing Winnipeg Center
03:11PM 48.9667 -96.3333 151° Southeast 390 449 22,500 1,260 Climbing Winnipeg Center
03:12PM 48.8833 -96.2500 147° Southeast 380 437 23,700 1,200 Climbing Winnipeg Center
03:13PM 48.7833 -96.1500 147° Southeast 380 437 24,900 1,140 Climbing Winnipeg Center
03:14PM 48.7000 -96.0833 152° Southeast 380 437 26,000 1,020 Climbing Winnipeg Center
03:15PM 48.6803 -96.0617 144° Southeast 386 444 26,400 1,020 Climbing Minneapolis Center
03:16PM 48.5903 -95.9792 149° Southeast 382 440 27,500 1,020 Climbing Minneapolis Center
03:17PM 48.4994 -95.8958 149° Southeast 381 438 28,600 1,020 Climbing Minneapolis Center
03:18PM 48.4092 -95.8147 149° Southeast 380 437 29,700 1,020 Climbing Minneapolis Center
03:19PM 48.3194 -95.7317 148° Southeast 379 436 30,800 1,140 Climbing Minneapolis Center
03:20PM 48.2278 -95.6494 149° Southeast 382 440 32,100 1,260 Climbing Minneapolis Center
03:21PM 48.1175 -95.5517 149° Southeast 383 441 33,400 1,020 Climbing Minneapolis Center
03:22PM 48.0358 -95.4792 149° Southeast 385 443 34,300 780 Climbing Minneapolis Center
03:23PM 47.9447 -95.3961 149° Southeast 386 444 35,000 300 Climbing Minneapolis Center
03:24PM 47.8297 -95.2936 149° Southeast 396 456 35,000  Level Minneapolis Center
03:25PM 47.7272 -95.2036 149° Southeast 417 480 35,000  Level Minneapolis Center
03:26PM 47.6211 -95.1083 149° Southeast 435 501 35,000  Level Minneapolis Center
03:27PM 47.5114 -95.0128 150° Southeast 451 519 35,000  Level Minneapolis Center
03:28PM 47.4011 -94.9158 149° Southeast 462 532 35,000  Level Minneapolis Center
03:29PM 47.2906 -94.8233 150° Southeast 461 531 35,000 -60 Level Minneapolis Center
03:30PM 47.1828 -94.7300 150° Southeast 454 522 34,900  Descending Minneapolis Center
03:31PM 47.0747 -94.6367 150° Southeast 454 522 35,000  Climbing Minneapolis Center
03:32PM 46.9453 -94.5272 150° Southeast 452 520 35,000  Level Minneapolis Center
03:33PM 46.8375 -94.4358 150° Southeast 451 519 35,000  Level Minneapolis Center
03:34PM 46.7278 -94.3433 150° Southeast 457 526 35,000  Level Minneapolis Center
03:35PM 46.6178 -94.2503 150° Southeast 460 529 35,000  Level Minneapolis Center
03:36PM 46.5103 -94.1611 150° Southeast 451 519 35,000  Level Minneapolis Center
03:37PM 46.4042 -94.0739 150° Southeast 443 510 35,000  Level Minneapolis Center
03:38PM 46.2944 -93.9958 154° Southeast 443 510 35,000  Level Minneapolis Center
03:39PM 46.1736 -93.9314 160° South 440 506 35,000  Level Minneapolis Center
03:40PM 46.0597 -93.8678 159° South 439 505 35,000  Level Minneapolis Center
03:41PM 45.9208 -93.7922 159° South 444 511 35,000  Level Minneapolis Center
03:42PM 45.8061 -93.7292 159° South 445 512 35,000  Level Minneapolis Center
03:43PM 45.6897 -93.6661 159° South 448 516 35,000  Level Minneapolis Center
03:44PM 45.5797 -93.5794 151° Southeast 460 529 35,000  Level Minneapolis Center
03:45PM 45.4969 -93.4269 128° Southeast 483 556 35,000  Level Minneapolis Center
03:46PM 45.4142 -93.2733 127° Southeast 486 559 35,000  Level Minneapolis Center
03:47PM 45.3308 -93.1203 128° Southeast 488 562 35,000  Level Minneapolis Center
03:48PM 45.2650 -92.9986 128° Southeast 486 559 35,000  Level Minneapolis Center
03:49PM 45.1492 -92.7856 128° Southeast 485 558 35,000  Level Minneapolis Center
03:50PM 45.0647 -92.6339 128° Southeast 486 559 35,000  Level Minneapolis Center
03:51PM 44.9814 -92.4831 128° Southeast 486 559 35,000  Level Minneapolis Center
03:53PM 44.8972 -92.3314 128° Southeast 489 563 35,000  Level Minneapolis Center
03:54PM 44.8131 -92.1806 128° Southeast 490 564 35,000  Level Minneapolis Center
03:55PM 44.7281 -92.0292 128° Southeast 492 566 35,000  Level Minneapolis Center
03:56PM 44.6422 -91.8769 128° Southeast 496 571 35,000  Level Minneapolis Center
03:57PM 44.5569 -91.7261 128° Southeast 496 571 35,000  Level Minneapolis Center
03:58PM 44.4694 -91.5750 129° Southeast 498 573 35,000 -420 Level Minneapolis Center
03:59PM 44.3664 -91.3933 128° Southeast 499 574 34,200 -720 Descending Minneapolis Center
04:00PM 44.2875 -91.2547 128° Southeast 497 572 33,600 -900 Descending Minneapolis Center
04:01PM 44.2067 -91.1150 129° Southeast 477 549 32,400 -1,080 Descending Minneapolis Center
04:02PM 44.1253 -90.9764 129° Southeast 468 539 31,400 -720 Descending Minneapolis Center
04:03PM 44.0408 -90.8314 129° Southeast 478 550 31,000 -240 Descending Minneapolis Center
04:04PM 43.9411 -90.6617 129° Southeast 476 548 31,000 -120 Level Minneapolis Center
04:05PM 43.8608 -90.5247 129° Southeast 477 549 30,800 -540 Descending Minneapolis Center
04:06PM 43.7767 -90.3814 129° Southeast 478 550 29,900 -960 Descending Minneapolis Center
04:07PM 43.6897 -90.2361 130° Southeast 477 549 28,900 -1,680 Descending Minneapolis Center
04:08PM 43.5992 -90.0872 130° Southeast 451 519 26,500 -2,340 Descending Minneapolis Center
04:09PM 43.5242 -89.9592 129° Southeast 432 497 24,200 -2,280 Descending Minneapolis Center
04:10PM 43.4550 -89.8483 131° Southeast 453 521 22,300 -1,740 Descending Chicago Center
04:11PM 43.3772 -89.7172 129° Southeast 444 511 21,000 -660 Descending Chicago Center
04:12PM 43.2981 -89.5914 131° Southeast 436 502 21,000  Level Chicago Center
04:13PM 43.2203 -89.4639 130° Southeast 436 502 21,000 -600 Level Chicago Center
04:14PM 43.1356 -89.3447 134° Southeast 438 504 19,800 -1,920 Descending Chicago Center
04:15PM 43.0153 -89.2875 161° South 396 456 17,100 -2,400 Descending Chicago Center
04:16PM 42.9125 -89.2469 164° South 387 445 14,900 -1,980 Descending Chicago Center
04:17PM 42.8211 -89.1964 158° South 364 419 13,100 -960 Descending Chicago Center
04:18PM 42.7506 -89.0917 133° Southeast 374 430 13,000 -300 Descending Chicago Center
04:19PM 42.6706 -88.9647 131° Southeast 379 436 12,500 -780 Descending Chicago Center
04:20PM 42.6028 -88.8572 131° Southeast 377 434 11,500 -960 Descending Chicago Center
04:21PM 42.5383 -88.7564 131° Southeast 357 411 10,600 -780 Descending Chicago Center
04:22PM 42.4739 -88.6522 130° Southeast 360 414 10,000 -300 Descending Chicago Center
04:23PM 42.4106 -88.5572 132° Southeast 345 397 10,000  Level Chicago Center
04:24PM 42.3517 -88.4178 120° Southeast 378 435 10,000  Level Chicago Center
04:25PM 42.2975 -88.3181 126° Southeast 360 414 10,000  Level Chicago Center
04:26PM 42.2364 -88.2153 129° Southeast 354 407 10,000 -300 Level Chicago Center
04:27PM 42.1814 -88.1308 131° Southeast 297 342 9,400 -1,380 Descending Chicago Center
04:28PM 42.1147 -88.0544 140° Southeast 263 303 7,200 -1,500 Descending Chicago Center
04:29PM 42.1000 -88.0000 110° East 285 328 7,000 -180 Descending Chicago TRACON
04:30PM 42.1000 -87.9000 90° East 308 354 7,000 -60 Level Chicago TRACON
04:31PM 42.1000 -87.7667 90° East 306 352 6,900 -900 Descending Chicago TRACON
04:32PM 42.1000 -87.6833 90° East 293 337 5,300 -1,560 Descending Chicago TRACON
04:33PM 42.1000 -87.5667 90° East 273 314 4,000 -660 Descending Chicago TRACON
04:34PM 42.0833 -87.4667 103° East 270 311 4,000  Level Chicago TRACON
04:35PM 42.0500 -87.3833 118° Southeast 283 326 4,000  Level Chicago TRACON
04:36PM 42.0000 -87.4333 217° Southwest 230 265 4,000  Level Chicago TRACON
04:37PM 42.0000 -87.5000 270° West 205 236 4,000  Level Chicago TRACON
04:38PM 42.0000 -87.5833 270° West 207 238 4,000  Level Chicago TRACON
04:39PM 42.0000 -87.6500 270° West 199 229 4,000 -600 Level Chicago TRACON
04:41PM 42.0000 -87.7833 270° West 179 206 2,300 -900 Descending Chicago TRACON
04:42PM 42.0000 -87.8500 270° West 138 159 1,500 -780 Descending Chicago TRACON
04:43PM 42.0000 -87.8833 270° West 129 148 800 -720 Descending Chicago TRACON
04:45PM 41.9817 -87.9067 242° Southwest  Level Estimated